Time;durP1;ratioP1;P1;durP2;ratioP2;P2;SDS_P1;SDS_P2;PMS_P1;PMS_P2;Temp;Humidity;BMP_temperature;BMP_pressure;BME280_temperature;BME280_humidity;BME280_pressure;Samples;Min_cycle;Max_cycle;Signal;HPM_P1;HPM_P2
2023/10/05 00:01:24;;;;;;;0.70;0.70;;;20.60;68.00;;;;;;5094175;28;20104;-77
2023/10/05 00:03:50;;;;;;;0.68;0.68;;;20.50;67.70;;;;;;5094805;28;20068;-77
2023/10/05 00:06:17;;;;;;;0.85;0.80;;;20.50;67.80;;;;;;5085908;28;20154;-77
2023/10/05 00:08:48;;;;;;;0.63;0.45;;;20.50;67.60;;;;;;5085104;28;20044;-77
2023/10/05 00:11:23;;;;;;;0.70;0.70;;;20.50;67.50;;;;;;5072526;28;20044;-77
2023/10/05 00:13:53;;;;;;;0.70;0.70;;;20.50;67.50;;;;;;5088999;28;20032;-77
2023/10/05 00:16:21;;;;;;;0.70;0.70;;;20.50;67.50;;;;;;5092644;28;20387;-77
2023/10/05 00:18:49;;;;;;;0.60;0.60;;;20.50;67.40;;;;;;5097070;28;20507;-77
2023/10/05 00:21:18;;;;;;;0.50;0.50;;;20.50;67.30;;;;;;5075294;28;20044;-77
2023/10/05 00:23:43;;;;;;;0.70;0.70;;;20.50;67.40;;;;;;5091475;28;20044;-77
2023/10/05 00:26:09;;;;;;;0.50;0.50;;;20.50;67.40;;;;;;5091505;28;20037;-78
2023/10/05 00:28:35;;;;;;;0.80;0.80;;;20.50;67.40;;;;;;5098382;28;20590;-77
2023/10/05 00:31:03;;;;;;;0.60;0.60;;;20.50;67.40;;;;;;5098931;28;20043;-77
2023/10/05 00:33:28;;;;;;;0.70;0.70;;;20.50;67.40;;;;;;5090429;28;20077;-77
2023/10/05 00:35:54;;;;;;;0.65;0.55;;;20.50;67.40;;;;;;5069821;28;20076;-77
2023/10/05 00:38:20;;;;;;;0.50;0.50;;;20.50;67.30;;;;;;5073838;28;20043;-77
2023/10/05 00:45:47;;;;;;;0.73;0.50;;;20.50;68.20;;;;;;5095196;28;20410;-77
2023/10/05 00:51:06;;;;;;;1.35;0.60;;;20.50;67.40;;;;;;5089315;28;20058;-78
2023/10/05 00:53:32;;;;;;;0.50;0.50;;;20.50;67.30;;;;;;5094781;28;20544;-78
2023/10/05 00:56:12;;;;;;;0.63;0.63;;;20.50;68.10;;;;;;5090752;28;20055;-78
2023/10/05 00:58:44;;;;;;;0.70;0.70;;;20.50;67.40;;;;;;5094375;28;20509;-77
2023/10/05 01:01:23;;;;;;;0.93;0.50;;;20.50;68.20;;;;;;5106912;27;20055;-77
2023/10/05 01:06:38;;;;;;;0.60;0.60;;;20.50;67.30;;;;;;5079798;28;20032;-77
2023/10/05 01:09:07;;;;;;;0.70;0.70;;;20.50;67.40;;;;;;5056282;28;20060;-77
2023/10/05 01:11:51;;;;;;;0.60;0.60;;;20.50;67.40;;;;;;5083552;28;20090;-78
2023/10/05 01:14:18;;;;;;;0.50;0.50;;;20.50;67.40;;;;;;5100950;27;20628;-77
2023/10/05 01:16:44;;;;;;;0.73;0.55;;;20.50;67.40;;;;;;5093177;28;20060;-77
2023/10/05 01:19:10;;;;;;;0.50;0.50;;;20.50;67.40;;;;;;5084225;28;20112;-77
2023/10/05 01:21:36;;;;;;;0.40;0.40;;;20.50;67.40;;;;;;5084238;28;20051;-77
2023/10/05 01:24:03;;;;;;;0.60;0.60;;;20.50;68.20;;;;;;5085446;28;20070;-77
2023/10/05 01:26:28;;;;;;;1.85;0.73;;;20.50;67.40;;;;;;5092194;28;20058;-77
2023/10/05 01:28:54;;;;;;;0.40;0.40;;;20.50;67.30;;;;;;5067968;28;20036;-77
2023/10/05 01:31:21;;;;;;;0.50;0.47;;;20.50;67.30;;;;;;5083924;28;20032;-77
2023/10/05 01:33:47;;;;;;;0.60;0.60;;;20.50;67.30;;;;;;5087636;28;20062;-77
2023/10/05 01:36:15;;;;;;;0.50;0.50;;;20.50;67.30;;;;;;5088128;28;20039;-77
2023/10/05 01:38:41;;;;;;;0.40;0.40;;;20.50;67.40;;;;;;5064409;28;20094;-77
2023/10/05 01:41:07;;;;;;;0.50;0.50;;;20.50;67.40;;;;;;5090085;28;20036;-77
2023/10/05 01:43:37;;;;;;;0.43;0.43;;;20.50;67.50;;;;;;5091656;28;20110;-77
2023/10/05 01:46:04;;;;;;;0.60;0.60;;;20.50;67.40;;;;;;5093596;28;20041;-78
2023/10/05 01:48:31;;;;;;;0.70;0.70;;;20.50;67.40;;;;;;5091231;28;20042;-78
2023/10/05 01:51:08;;;;;;;0.50;0.50;;;20.50;67.40;;;;;;5105612;27;20043;-78
2023/10/05 01:53:33;;;;;;;0.55;0.55;;;20.50;67.40;;;;;;5091342;28;20047;-78
2023/10/05 01:56:00;;;;;;;0.70;0.70;;;20.50;67.40;;;;;;5089667;28;20417;-78
2023/10/05 01:58:31;;;;;;;0.40;0.40;;;20.40;67.30;;;;;;5087669;28;20115;-78
2023/10/05 02:00:56;;;;;;;0.50;0.50;;;20.40;67.30;;;;;;5086785;28;20451;-77
2023/10/05 02:03:23;;;;;;;0.50;0.50;;;20.50;67.40;;;;;;5091695;28;20509;-77
2023/10/05 02:05:58;;;;;;;0.50;0.50;;;20.50;67.30;;;;;;5088997;28;20062;-77
2023/10/05 02:08:24;;;;;;;0.65;0.65;;;20.40;67.30;;;;;;5086817;28;20056;-77
2023/10/05 02:10:50;;;;;;;0.40;0.40;;;20.50;67.40;;;;;;5090211;28;20036;-77
2023/10/05 02:13:17;;;;;;;0.60;0.60;;;20.40;67.30;;;;;;5091647;28;20044;-77
2023/10/05 02:15:45;;;;;;;0.60;0.60;;;20.40;67.30;;;;;;5089347;28;20084;-77
2023/10/05 02:18:22;;;;;;;0.50;0.50;;;20.50;67.30;;;;;;5092181;28;20399;-77
2023/10/05 02:20:51;;;;;;;1.20;0.60;;;20.40;67.30;;;;;;5091299;28;20056;-77
2023/10/05 02:23:28;;;;;;;0.60;0.60;;;20.50;67.30;;;;;;5088351;28;20055;-77
2023/10/05 02:26:01;;;;;;;0.40;0.40;;;20.40;67.40;;;;;;5091707;28;20036;-77
2023/10/05 02:28:27;;;;;;;0.55;0.55;;;20.40;67.30;;;;;;5091903;28;20515;-77
2023/10/05 02:30:59;;;;;;;0.35;0.35;;;20.50;67.40;;;;;;5094278;28;20036;-77
2023/10/05 02:33:29;;;;;;;0.63;0.63;;;20.40;67.30;;;;;;5089400;28;20043;-77
2023/10/05 02:36:08;;;;;;;0.40;0.40;;;20.40;67.30;;;;;;5089895;28;20074;-77
2023/10/05 02:38:34;;;;;;;0.40;0.40;;;20.40;67.90;;;;;;5091643;28;20132;-77
2023/10/05 02:41:04;;;;;;;0.52;0.50;;;20.40;67.30;;;;;;5089356;28;20114;-77
2023/10/05 02:43:38;;;;;;;0.75;0.75;;;20.50;67.30;;;;;;5090455;28;20055;-77
2023/10/05 02:46:09;;;;;;;;;;;20.40;67.30;;;;;;5092528;28;20039;-77
2023/10/05 02:48:35;;;;;;;0.70;0.40;;;20.40;67.30;;;;;;5086629;28;19969;-77
2023/10/05 02:51:05;;;;;;;0.52;0.50;;;20.40;67.30;;;;;;5089478;28;20405;-77
2023/10/05 02:53:40;;;;;;;0.60;0.50;;;20.40;67.30;;;;;;5089696;28;20410;-77
2023/10/05 02:56:16;;;;;;;0.50;0.50;;;20.40;67.30;;;;;;5089705;28;20048;-77
2023/10/05 02:58:44;;;;;;;0.47;0.47;;;20.40;67.20;;;;;;5093904;28;20513;-77
2023/10/05 03:01:11;;;;;;;0.40;0.40;;;20.40;67.30;;;;;;5086308;28;20029;-77
2023/10/05 03:03:37;;;;;;;0.40;0.35;;;20.40;67.30;;;;;;5084747;28;20161;-77
2023/10/05 03:06:05;;;;;;;1.65;0.50;;;20.40;67.30;;;;;;5094858;28;20111;-77
2023/10/05 03:08:35;;;;;;;0.45;0.45;;;20.40;67.30;;;;;;5082784;28;20076;-77
2023/10/05 03:11:01;;;;;;;0.57;0.57;;;20.40;67.30;;;;;;5095809;28;20036;-77
2023/10/05 03:13:27;;;;;;;0.40;0.40;;;20.40;67.30;;;;;;5094241;28;20048;-77
2023/10/05 03:15:54;;;;;;;0.60;0.60;;;20.40;67.30;;;;;;5094373;28;20040;-77
2023/10/05 03:18:20;;;;;;;0.40;0.40;;;20.40;67.30;;;;;;5080377;28;20045;-77
2023/10/05 03:20:46;;;;;;;0.43;0.43;;;20.40;67.30;;;;;;5086185;28;20044;-77
2023/10/05 03:23:14;;;;;;;0.60;0.60;;;20.40;67.30;;;;;;5098414;28;20057;-77
2023/10/05 03:25:40;;;;;;;0.30;0.30;;;20.40;67.30;;;;;;5098072;28;20063;-77
2023/10/05 03:28:06;;;;;;;0.30;0.30;;;20.40;67.30;;;;;;5066705;28;20131;-78
2023/10/05 03:30:35;;;;;;;0.52;0.52;;;20.40;67.20;;;;;;5089413;28;21153;-78
2023/10/05 03:33:02;;;;;;;0.40;0.40;;;20.40;67.30;;;;;;5070607;28;20135;-77
2023/10/05 03:35:32;;;;;;;0.50;0.50;;;20.40;67.30;;;;;;5093402;28;20048;-78
2023/10/05 03:37:58;;;;;;;0.30;0.30;;;20.40;67.20;;;;;;5093768;28;20479;-78
2023/10/05 03:40:25;;;;;;;0.50;0.40;;;20.30;67.20;;;;;;5088281;28;20145;-78
2023/10/05 03:42:58;;;;;;;0.38;0.38;;;20.40;67.30;;;;;;5089721;28;20043;-78
2023/10/05 03:45:23;;;;;;;0.50;0.50;;;20.40;67.30;;;;;;5088470;28;20389;-78
2023/10/05 03:47:49;;;;;;;0.32;0.30;;;20.40;67.30;;;;;;5094942;28;20036;-78
2023/10/05 03:50:18;;;;;;;0.50;0.50;;;20.40;67.30;;;;;;5082969;28;20044;-78
2023/10/05 03:52:47;;;;;;;0.40;0.40;;;20.40;67.40;;;;;;5094174;28;20040;-78
2023/10/05 03:55:13;;;;;;;0.30;0.30;;;20.30;67.40;;;;;;5097559;28;20085;-78
2023/10/05 03:57:39;;;;;;;0.47;0.40;;;20.30;67.30;;;;;;5073555;28;20064;-77
2023/10/05 04:00:31;;;;;;;0.40;0.40;;;20.30;67.30;;;;;;5093615;28;20035;-77
2023/10/05 04:02:57;;;;;;;0.45;0.45;;;20.30;67.20;;;;;;5098228;28;20110;-77
2023/10/05 04:05:23;;;;;;;0.40;0.40;;;20.30;67.20;;;;;;5092577;28;20056;-77
2023/10/05 04:07:50;;;;;;;0.40;0.40;;;20.30;67.20;;;;;;5082924;28;20036;-78
2023/10/05 04:10:23;;;;;;;0.52;0.52;;;20.30;67.20;;;;;;5095908;28;20032;-77
2023/10/05 04:12:49;;;;;;;0.40;0.40;;;20.30;67.20;;;;;;5090088;28;20046;-77
2023/10/05 04:15:18;;;;;;;0.30;0.30;;;20.30;67.30;;;;;;5108442;27;20039;-77
2023/10/05 04:17:49;;;;;;;0.40;0.40;;;20.30;67.20;;;;;;5092083;28;20214;-77
2023/10/05 04:20:22;;;;;;;0.40;0.40;;;20.30;67.40;;;;;;5084915;28;20038;-77
2023/10/05 04:22:49;;;;;;;0.30;0.30;;;20.30;67.20;;;;;;5094060;28;20035;-77
2023/10/05 04:25:16;;;;;;;0.40;0.40;;;20.30;67.30;;;;;;5108757;27;20169;-77
2023/10/05 04:27:44;;;;;;;0.50;0.30;;;20.30;67.30;;;;;;5087892;28;20038;-77
2023/10/05 04:30:13;;;;;;;1.10;0.40;;;20.30;67.20;;;;;;5095003;28;20077;-77
2023/10/05 04:32:38;;;;;;;0.30;0.30;;;20.30;67.30;;;;;;5071576;28;20048;-77
2023/10/05 04:35:14;;;;;;;0.30;0.30;;;20.30;67.30;;;;;;5093720;28;20036;-77
2023/10/05 04:37:39;;;;;;;0.40;0.32;;;20.30;67.30;;;;;;5096834;28;20176;-77
2023/10/05 04:40:09;;;;;;;0.30;0.30;;;20.30;67.30;;;;;;5091726;28;20130;-77
2023/10/05 04:42:34;;;;;;;0.65;0.50;;;20.30;67.30;;;;;;5093078;28;20075;-77
2023/10/05 04:45:02;;;;;;;0.45;0.43;;;20.30;67.30;;;;;;5090915;28;20082;-77
2023/10/05 04:47:27;;;;;;;0.40;0.40;;;20.30;67.20;;;;;;5092700;28;20134;-76
2023/10/05 04:49:53;;;;;;;0.38;0.38;;;20.30;67.20;;;;;;5096337;28;20479;-77
2023/10/05 04:52:23;;;;;;;0.35;0.35;;;20.30;67.20;;;;;;5085915;28;20470;-77
2023/10/05 04:54:57;;;;;;;0.30;0.30;;;20.30;67.20;;;;;;5090612;28;20032;-77
2023/10/05 04:57:35;;;;;;;0.40;0.40;;;20.30;67.20;;;;;;5092553;28;20054;-76
2023/10/05 05:00:48;;;;;;;0.50;0.40;;;20.30;67.20;;;;;;5072992;28;20529;-77
2023/10/05 05:06:00;;;;;;;0.30;0.30;;;20.30;67.20;;;;;;4987825;28;22362;-80
2023/10/05 05:08:31;;;;;;;0.20;0.20;;;20.30;67.20;;;;;;4991934;28;20049;-80
2023/10/05 05:10:58;;;;;;;0.30;0.30;;;20.20;67.10;;;;;;4995020;28;20064;-79
2023/10/05 05:13:27;;;;;;;0.25;0.25;;;20.30;67.20;;;;;;4987596;28;20038;-80
2023/10/05 05:15:53;;;;;;;0.30;0.30;;;20.30;67.20;;;;;;4993062;28;20412;-80
2023/10/05 05:18:19;;;;;;;0.38;0.38;;;20.30;67.20;;;;;;4990929;28;20057;-80
2023/10/05 05:20:44;;;;;;;0.50;0.50;;;20.30;67.20;;;;;;4991797;28;20101;-80
2023/10/05 05:23:13;;;;;;;0.30;0.30;;;20.30;67.20;;;;;;4993335;28;20053;-80
2023/10/05 05:25:39;;;;;;;0.40;0.40;;;20.30;67.20;;;;;;4994029;28;20097;-80
2023/10/05 05:28:05;;;;;;;0.30;0.30;;;20.30;67.20;;;;;;4991273;28;20030;-80
2023/10/05 05:30:32;;;;;;;0.45;0.45;;;20.30;67.10;;;;;;4988919;28;20121;-80
2023/10/05 05:32:58;;;;;;;0.50;0.50;;;20.30;67.20;;;;;;4989473;28;20085;-80
2023/10/05 05:35:24;;;;;;;0.40;0.40;;;20.30;67.20;;;;;;4991297;28;20054;-80
2023/10/05 05:37:50;;;;;;;0.40;0.40;;;20.30;67.10;;;;;;4990786;28;20057;-78
2023/10/05 05:40:15;;;;;;;0.30;0.30;;;20.30;67.40;;;;;;5043341;28;20028;-78
2023/10/05 05:42:44;;;;;;;0.30;0.30;;;20.30;67.40;;;;;;5065494;28;20102;-78
2023/10/05 05:45:19;;;;;;;0.50;0.40;;;20.30;67.20;;;;;;5060549;28;20527;-78
2023/10/05 05:47:47;;;;;;;0.43;0.38;;;20.30;67.40;;;;;;5063823;28;20039;-75
2023/10/05 05:50:23;;;;;;;0.65;0.60;;;20.20;67.30;;;;;;5056136;28;20045;-77
2023/10/05 05:52:48;;;;;;;1.67;0.70;;;20.20;65.00;;;;;;5064647;28;20147;-78
2023/10/05 05:55:17;;;;;;;3.28;1.50;;;19.90;62.60;;;;;;5062672;28;20044;-77
2023/10/05 05:57:43;;;;;;;1.17;1.08;;;19.70;59.10;;;;;;5057619;28;20059;-76
2023/10/05 06:00:12;;;;;;;1.25;1.15;;;19.30;60.10;;;;;;5049058;28;20041;-77
2023/10/05 06:02:41;;;;;;;1.98;1.75;;;19.10;57.60;;;;;;5045800;28;20071;-78
2023/10/05 06:05:10;;;;;;;3.00;1.48;;;18.10;58.70;;;;;;5060625;28;20044;-77
2023/10/05 06:07:40;;;;;;;2.15;1.70;;;17.30;60.80;;;;;;5050383;28;20463;-78
2023/10/05 06:10:12;;;;;;;1.98;1.70;;;16.80;62.80;;;;;;5053669;28;20063;-77
2023/10/05 06:12:48;;;;;;;3.33;1.60;;;16.60;63.60;;;;;;5034978;28;20104;-78
2023/10/05 06:15:13;;;;;;;2.60;2.00;;;16.50;64.20;;;;;;5057180;28;20068;-75
2023/10/05 06:17:40;;;;;;;2.83;1.90;;;16.30;65.50;;;;;;5067068;28;20067;-75
2023/10/05 06:20:07;;;;;;;6.05;1.88;;;15.90;65.60;;;;;;5061159;28;20036;-77
2023/10/05 06:22:33;;;;;;;3.83;1.80;;;15.90;66.50;;;;;;5080142;28;20040;-77
2023/10/05 06:24:59;;;;;;;8.27;2.10;;;16.00;66.90;;;;;;5070917;28;20443;-76
2023/10/05 06:27:24;;;;;;;4.55;1.67;;;15.70;67.50;;;;;;5085831;28;20044;-76
2023/10/05 06:29:50;;;;;;;1.92;1.70;;;15.70;68.30;;;;;;5073748;28;20040;-76
2023/10/05 06:32:15;;;;;;;3.08;1.60;;;15.70;68.00;;;;;;5078282;28;20032;-75
2023/10/05 06:34:41;;;;;;;1.77;1.30;;;15.80;68.30;;;;;;5079863;28;20401;-75
2023/10/05 06:37:07;;;;;;;2.38;1.50;;;15.70;68.40;;;;;;5082376;28;20052;-75
2023/10/05 06:39:32;;;;;;;1.80;1.40;;;15.50;69.40;;;;;;5076384;28;20520;-75
2023/10/05 06:41:58;;;;;;;5.25;1.70;;;15.60;70.60;;;;;;5069495;28;20047;-75
2023/10/05 06:44:24;;;;;;;1.95;1.27;;;16.00;69.70;;;;;;5061342;28;20081;-75
2023/10/05 06:46:49;;;;;;;1.50;1.13;;;16.50;68.50;;;;;;5073106;28;20076;-75
2023/10/05 06:49:16;;;;;;;3.13;1.05;;;16.90;67.10;;;;;;4739721;27;10000160;-75
2023/10/05 06:51:45;;;;;;;2.47;0.95;;;17.30;65.90;;;;;;5066442;28;20118;-75
2023/10/05 06:54:11;;;;;;;1.20;1.10;;;17.50;65.20;;;;;;5076638;28;20048;-76
2023/10/05 06:56:36;;;;;;;1.88;1.02;;;17.60;64.80;;;;;;5078434;28;20105;-76
2023/10/05 06:59:04;;;;;;;1.58;1.00;;;17.70;64.30;;;;;;5077017;28;20174;-77
2023/10/05 07:01:34;;;;;;;1.25;1.15;;;17.70;64.10;;;;;;5072891;28;20079;-75
2023/10/05 07:04:00;;;;;;;2.40;1.20;;;17.80;64.10;;;;;;5067325;28;20080;-76
2023/10/05 07:06:29;;;;;;;1.13;1.10;;;17.90;64.10;;;;;;5076887;28;20047;-76
2023/10/05 07:08:55;;;;;;;1.95;0.90;;;18.00;63.90;;;;;;5063953;28;20040;-76
2023/10/05 07:11:21;;;;;;;1.50;0.70;;;18.00;63.70;;;;;;5062726;28;20045;-76
2023/10/05 07:13:47;;;;;;;3.08;1.20;;;18.00;63.80;;;;;;5061388;28;20046;-75
2023/10/05 07:16:13;;;;;;;1.40;1.20;;;18.10;65.00;;;;;;5075630;28;20032;-77
2023/10/05 07:18:42;;;;;;;1.10;0.95;;;18.10;64.40;;;;;;5065281;28;20040;-76
2023/10/05 07:21:08;;;;;;;1.30;1.20;;;18.30;64.20;;;;;;5043865;28;20092;-77
2023/10/05 07:23:37;;;;;;;1.05;0.80;;;18.30;64.90;;;;;;5098717;28;20051;-76
2023/10/05 07:26:04;;;;;;;1.67;1.17;;;18.40;64.10;;;;;;5073051;28;20048;-77
2023/10/05 07:28:31;;;;;;;2.75;0.90;;;18.40;63.90;;;;;;5058695;28;20072;-77
2023/10/05 07:30:56;;;;;;;1.85;0.88;;;18.40;64.00;;;;;;5069902;28;20048;-77
2023/10/05 07:33:22;;;;;;;2.28;0.90;;;18.50;64.00;;;;;;5068612;28;20059;-76
2023/10/05 07:35:48;;;;;;;1.00;0.90;;;18.50;63.90;;;;;;5077932;28;20580;-76
2023/10/05 07:38:14;;;;;;;1.42;0.80;;;18.50;63.70;;;;;;5072640;28;20090;-77
2023/10/05 07:40:41;;;;;;;1.35;1.25;;;18.60;63.90;;;;;;5076301;28;20044;-77
2023/10/05 07:43:07;;;;;;;2.13;0.90;;;18.60;63.90;;;;;;5049495;28;20405;-73
2023/10/05 07:45:33;;;;;;;0.93;0.88;;;18.60;64.20;;;;;;5072126;28;20058;-75
2023/10/05 07:48:00;;;;;;;1.08;0.75;;;18.70;64.30;;;;;;5077424;28;20032;-75
2023/10/05 07:50:26;;;;;;;3.42;1.00;;;18.70;64.50;;;;;;5026663;28;20040;-76
2023/10/05 07:52:51;;;;;;;1.10;0.80;;;18.70;64.60;;;;;;5043088;28;20102;-76
2023/10/05 07:55:17;;;;;;;2.00;1.20;;;18.90;64.00;;;;;;5062186;28;20044;-76
2023/10/05 07:57:43;;;;;;;1.73;1.55;;;18.70;63.90;;;;;;5055656;28;20040;-76
2023/10/05 08:00:13;;;;;;;1.88;1.50;;;18.60;63.90;;;;;;5057679;28;20622;-76
2023/10/05 08:02:39;;;;;;;2.38;1.70;;;18.40;64.20;;;;;;5063601;28;20072;-77
2023/10/05 08:05:15;;;;;;;2.15;1.95;;;18.30;64.30;;;;;;5066190;28;20079;-77
2023/10/05 08:07:41;;;;;;;2.00;1.80;;;18.20;64.50;;;;;;5068349;28;20044;-76
2023/10/05 08:10:13;;;;;;;2.40;2.17;;;18.30;64.60;;;;;;5076678;28;20056;-76
2023/10/05 08:12:39;;;;;;;4.60;2.22;;;18.20;64.70;;;;;;5081103;28;20059;-76
2023/10/05 08:15:05;;;;;;;3.60;1.73;;;18.20;64.60;;;;;;5079583;28;21079;-76
2023/10/05 08:17:33;;;;;;;1.73;1.42;;;18.20;64.60;;;;;;5070872;28;20046;-76
2023/10/05 08:19:58;;;;;;;2.35;1.90;;;18.10;64.80;;;;;;5070782;28;20056;-76
2023/10/05 08:22:24;;;;;;;2.08;1.40;;;18.20;64.70;;;;;;5065450;28;20118;-75
2023/10/05 08:24:52;;;;;;;1.42;1.33;;;18.20;64.70;;;;;;5073689;28;20062;-77
2023/10/05 08:27:18;;;;;;;2.95;2.08;;;18.30;65.20;;;;;;5065574;28;20069;-77
2023/10/05 08:29:45;;;;;;;3.83;1.65;;;18.30;65.00;;;;;;5072918;28;20045;-76
2023/10/05 08:32:14;;;;;;;5.53;1.77;;;18.20;65.20;;;;;;5069503;28;20092;-76
2023/10/05 08:34:41;;;;;;;2.90;2.13;;;18.20;65.30;;;;;;5074044;28;20067;-77
2023/10/05 08:37:08;;;;;;;2.47;1.50;;;18.20;65.60;;;;;;5070394;28;20032;-76
2023/10/05 08:39:35;;;;;;;3.70;2.45;;;18.30;65.70;;;;;;5083403;28;22102;-76
2023/10/05 08:42:07;;;;;;;1.90;1.58;;;18.40;65.60;;;;;;5071423;28;20032;-77
2023/10/05 08:44:39;;;;;;;5.88;1.80;;;18.40;65.50;;;;;;5078899;28;20100;-75
2023/10/05 08:47:05;;;;;;;2.20;1.70;;;18.50;65.50;;;;;;5082686;28;20031;-76
2023/10/05 08:49:33;;;;;;;4.03;1.67;;;18.40;65.70;;;;;;5107518;27;20109;-76
2023/10/05 08:51:59;;;;;;;3.17;1.48;;;18.30;66.10;;;;;;5078107;28;20592;-76
2023/10/05 08:54:28;;;;;;;1.58;1.33;;;18.30;66.30;;;;;;5068887;28;20237;-77
2023/10/05 08:56:54;;;;;;;2.45;1.90;;;18.30;66.40;;;;;;5065767;28;20442;-76
2023/10/05 08:59:20;;;;;;;3.08;1.77;;;18.30;66.30;;;;;;5075646;28;20181;-76
2023/10/05 09:01:46;;;;;;;2.67;1.40;;;18.40;66.20;;;;;;5077550;28;20044;-76
2023/10/05 09:06:47;;;;;;;5.45;1.80;;;18.50;66.10;;;;;;5081253;28;20036;-78
2023/10/05 09:09:19;;;;;;;2.35;1.83;;;18.50;66.20;;;;;;5080708;28;20056;-78
2023/10/05 09:11:44;;;;;;;1.83;1.50;;;18.60;67.00;;;;;;5058633;28;20553;-79
2023/10/05 09:14:13;;;;;;;2.53;1.67;;;18.60;65.90;;;;;;5074719;28;20040;-80
2023/10/05 09:16:46;;;;;;;3.78;1.70;;;18.60;65.70;;;;;;5085808;28;20428;-79
2023/10/05 09:19:17;;;;;;;2.47;1.97;;;18.60;65.70;;;;;;5069128;28;20528;-80
2023/10/05 09:21:45;;;;;;;1.45;1.25;;;18.60;65.90;;;;;;5076643;28;20098;-79
2023/10/05 09:24:20;;;;;;;2.35;2.00;;;18.60;66.30;;;;;;5090023;28;20051;-79
2023/10/05 09:27:16;;;;;;;3.28;1.40;;;18.70;65.20;;;;;;5093006;28;20127;-78
2023/10/05 09:29:42;;;;;;;1.65;1.48;;;18.60;65.30;;;;;;5085766;28;20024;-80
2023/10/05 09:32:25;;;;;;;3.50;1.52;;;18.70;65.30;;;;;;5069400;28;20046;-81
2023/10/05 09:34:51;;;;;;;1.67;1.20;;;18.70;65.30;;;;;;5062126;28;20416;-79
2023/10/05 09:37:17;;;;;;;2.33;1.52;;;18.80;65.50;;;;;;5083670;28;20040;-79
2023/10/05 09:39:44;;;;;;;1.77;1.40;;;18.70;65.50;;;;;;5092279;28;20047;-79
2023/10/05 09:42:17;;;;;;;1.35;1.20;;;18.80;65.50;;;;;;5089171;28;20039;-78
2023/10/05 09:44:51;;;;;;;1.85;1.25;;;18.80;65.70;;;;;;5086439;28;20702;-79
2023/10/05 09:47:32;;;;;;;1.30;1.20;;;18.80;66.10;;;;;;5061876;28;20040;-78
2023/10/05 09:50:09;;;;;;;2.72;1.90;;;18.90;65.60;;;;;;5080291;28;20127;-78
2023/10/05 09:52:43;;;;;;;2.55;1.40;;;18.90;65.40;;;;;;5088003;28;20142;-78
2023/10/05 09:55:11;;;;;;;3.17;1.60;;;18.90;65.70;;;;;;5084530;28;20098;-78
2023/10/05 09:57:53;;;;;;;3.35;1.63;;;18.90;66.50;;;;;;5085593;28;20055;-78
2023/10/05 10:02:58;;;;;;;1.55;1.45;;;19.00;65.10;;;;;;5089768;28;20378;-78
2023/10/05 10:05:29;;;;;;;4.07;1.50;;;19.00;65.40;;;;;;4733380;28;10000628;-79
2023/10/05 10:08:00;;;;;;;1.27;1.08;;;19.00;65.10;;;;;;5062451;28;20065;-79
2023/10/05 10:10:26;;;;;;;2.55;1.45;;;19.10;65.70;;;;;;5066988;28;20052;-80
2023/10/05 10:12:52;;;;;;;2.50;1.15;;;19.10;65.70;;;;;;5064778;28;20406;-79
2023/10/05 10:15:32;;;;;;;1.40;1.10;;;19.20;65.50;;;;;;5084296;28;20044;-78
2023/10/05 10:18:06;;;;;;;3.95;1.42;;;19.20;66.60;;;;;;5062340;28;20115;-77
2023/10/05 10:20:35;;;;;;;1.70;0.93;;;19.20;65.70;;;;;;5081778;28;20334;-76
2023/10/05 10:23:07;;;;;;;1.55;1.30;;;19.20;65.50;;;;;;5088638;28;20080;-76
2023/10/05 10:25:38;;;;;;;1.70;1.13;;;19.30;65.60;;;;;;5085726;28;20494;-76
2023/10/05 10:28:17;;;;;;;1.80;1.30;;;19.30;66.50;;;;;;5074454;28;20063;-76
2023/10/05 10:30:47;;;;;;;1.35;1.15;;;19.30;65.40;;;;;;5081681;28;20040;-75
2023/10/05 10:33:30;;;;;;;1.85;1.10;;;19.30;65.90;;;;;;5060556;28;20426;-76
2023/10/05 10:35:56;;;;;;;1.27;1.15;;;19.40;65.70;;;;;;5057404;28;20059;-75
2023/10/05 10:38:22;;;;;;;2.75;1.20;;;19.40;65.00;;;;;;5086206;28;20112;-75
2023/10/05 10:41:09;;;;;;;4.05;1.35;;;19.40;65.30;;;;;;5102958;27;20130;-76
2023/10/05 10:43:36;;;;;;;2.05;0.98;;;19.40;65.10;;;;;;5086185;28;20537;-76
2023/10/05 10:46:07;;;;;;;2.80;1.23;;;19.40;65.00;;;;;;5085284;28;20313;-75
2023/10/05 10:48:37;;;;;;;1.83;1.20;;;19.40;65.10;;;;;;5062189;28;20058;-76
2023/10/05 10:51:10;;;;;;;0.98;0.88;;;19.50;65.00;;;;;;5054452;28;20074;-76
2023/10/05 10:53:37;;;;;;;1.20;1.10;;;19.50;64.70;;;;;;5050447;28;20044;-76
2023/10/05 10:56:17;;;;;;;1.15;1.00;;;19.50;63.70;;;;;;5076105;28;20140;-77
2023/10/05 10:58:44;;;;;;;0.93;0.90;;;19.60;64.40;;;;;;5084206;28;20594;-75
2023/10/05 11:01:28;;;;;;;2.25;1.08;;;19.60;63.60;;;;;;5061634;28;20532;-75
2023/10/05 11:04:04;;;;;;;2.90;1.00;;;19.60;63.80;;;;;;5081314;28;20128;-75
2023/10/05 11:06:30;;;;;;;1.65;1.25;;;19.60;63.80;;;;;;5039497;28;20659;-75
2023/10/05 11:08:59;;;;;;;1.80;1.33;;;19.60;64.50;;;;;;5066259;28;20031;-74
2023/10/05 11:11:25;;;;;;;2.50;1.10;;;19.60;64.10;;;;;;5052670;28;20064;-75
2023/10/05 11:14:00;;;;;;;1.55;1.25;;;19.70;64.00;;;;;;5059467;28;20505;-75
2023/10/05 11:16:35;;;;;;;1.10;0.93;;;19.60;64.10;;;;;;5073201;28;20059;-75
2023/10/05 11:19:04;;;;;;;3.65;1.73;;;19.70;63.70;;;;;;5072064;28;20573;-75
2023/10/05 11:21:39;;;;;;;1.80;0.90;;;19.70;63.00;;;;;;5100020;28;20043;-75
2023/10/05 11:24:08;;;;;;;1.30;1.10;;;19.70;63.20;;;;;;5059117;28;20486;-75
2023/10/05 11:26:56;;;;;;;2.13;1.35;;;19.70;63.20;;;;;;5072132;28;20146;-75
2023/10/05 11:29:28;;;;;;;3.22;1.40;;;19.80;62.50;;;;;;5068671;28;21570;-75
2023/10/05 11:32:01;;;;;;;0.70;0.70;;;19.80;63.10;;;;;;5090835;28;20044;-75
2023/10/05 11:34:29;;;;;;;1.27;1.05;;;19.80;63.70;;;;;;5071439;28;20464;-76
2023/10/05 11:36:58;;;;;;;1.00;0.90;;;19.80;63.30;;;;;;5086390;28;20050;-76
2023/10/05 11:39:27;;;;;;;1.98;0.93;;;19.90;63.00;;;;;;5078708;28;20052;-76
2023/10/05 11:41:56;;;;;;;1.00;0.90;;;19.90;63.20;;;;;;5090519;28;20047;-76
2023/10/05 11:44:24;;;;;;;1.10;0.85;;;19.90;63.50;;;;;;5072907;28;20131;-76
2023/10/05 11:46:53;;;;;;;0.85;0.82;;;19.90;63.80;;;;;;5068269;28;20186;-76
2023/10/05 11:49:19;;;;;;;1.40;1.02;;;20.00;63.70;;;;;;5077393;28;20062;-75
2023/10/05 11:51:48;;;;;;;1.50;1.08;;;20.00;63.70;;;;;;5086986;28;20502;-76
2023/10/05 11:54:15;;;;;;;1.38;0.90;;;20.00;63.90;;;;;;5078362;28;20064;-75
2023/10/05 11:56:40;;;;;;;1.00;0.88;;;20.00;63.90;;;;;;5079389;28;20048;-76
2023/10/05 11:59:08;;;;;;;2.42;0.98;;;20.00;63.90;;;;;;5086766;28;20048;-75
2023/10/05 12:01:34;;;;;;;1.30;1.10;;;20.00;64.60;;;;;;5082639;28;20049;-75
2023/10/05 12:04:03;;;;;;;1.08;0.70;;;20.10;63.80;;;;;;5082613;28;20044;-76
2023/10/05 12:06:30;;;;;;;2.28;0.90;;;20.10;64.00;;;;;;5069741;28;20035;-76
2023/10/05 12:09:00;;;;;;;1.15;1.00;;;20.10;64.20;;;;;;5078234;28;20035;-76
2023/10/05 12:11:29;;;;;;;1.08;0.82;;;20.10;64.10;;;;;;5086733;28;20044;-76
2023/10/05 12:13:58;;;;;;;0.68;0.61;;;20.10;64.30;;;;;;4712004;28;10001357;-76
2023/10/05 12:16:32;;;;;;;2.38;1.00;;;20.10;64.60;;;;;;5066053;28;20513;-75
2023/10/05 12:19:08;;;;;;;2.65;0.93;;;20.20;64.60;;;;;;5082560;28;20468;-76
2023/10/05 12:21:39;;;;;;;2.88;1.00;;;20.10;64.50;;;;;;5080231;28;20047;-76
2023/10/05 12:24:05;;;;;;;0.65;0.65;;;20.20;64.60;;;;;;5072840;28;20028;-76
2023/10/05 12:26:32;;;;;;;1.42;1.27;;;20.20;64.60;;;;;;5077030;28;20036;-76
2023/10/05 12:28:58;;;;;;;0.80;0.80;;;20.20;64.60;;;;;;5069201;28;20123;-76
2023/10/05 12:31:26;;;;;;;0.77;0.77;;;20.20;64.70;;;;;;5091589;28;20119;-76
2023/10/05 12:33:51;;;;;;;1.02;0.90;;;20.20;64.60;;;;;;5072965;28;20040;-76
2023/10/05 12:36:17;;;;;;;1.30;1.10;;;20.20;64.60;;;;;;5093800;28;20051;-76
2023/10/05 12:38:43;;;;;;;0.77;0.65;;;20.20;64.60;;;;;;5079053;28;20052;-76
2023/10/05 12:41:18;;;;;;;2.28;0.90;;;20.20;64.60;;;;;;5085900;28;20036;-76
2023/10/05 12:43:44;;;;;;;0.93;0.70;;;20.20;64.60;;;;;;5085654;28;20048;-76
2023/10/05 12:46:10;;;;;;;1.00;0.82;;;20.20;64.60;;;;;;5089945;28;20046;-76
2023/10/05 12:48:45;;;;;;;0.70;0.70;;;20.20;64.80;;;;;;5086901;28;20038;-76
2023/10/05 12:51:11;;;;;;;0.68;0.68;;;20.20;64.70;;;;;;5087450;28;20072;-76
2023/10/05 12:53:37;;;;;;;0.98;0.63;;;20.20;64.80;;;;;;5091565;28;20032;-76
2023/10/05 12:56:04;;;;;;;0.80;0.70;;;20.20;65.70;;;;;;5083946;28;20094;-76
2023/10/05 12:58:32;;;;;;;1.00;0.70;;;20.20;64.80;;;;;;5093000;28;20131;-76
2023/10/05 13:01:07;;;;;;;0.93;0.65;;;20.20;65.20;;;;;;5085414;28;20036;-76
2023/10/05 13:03:34;;;;;;;0.75;0.68;;;20.20;65.50;;;;;;5088955;28;20458;-76
2023/10/05 13:06:06;;;;;;;0.77;0.77;;;20.20;65.10;;;;;;5087555;28;20051;-76
2023/10/05 13:08:31;;;;;;;0.70;0.57;;;20.30;65.20;;;;;;5070730;28;20052;-76
2023/10/05 13:10:58;;;;;;;0.55;0.52;;;20.30;66.10;;;;;;5096787;28;20043;-76
2023/10/05 13:13:25;;;;;;;1.48;0.70;;;20.30;65.40;;;;;;5088107;28;20042;-76
2023/10/05 13:15:50;;;;;;;1.80;0.85;;;20.30;65.20;;;;;;5087751;28;20121;-76